Genoa/Cristoforo Colombo Airport

Airport
ICAO code: 
LIMJ
IATA Code: 
GOA
Summary
ICAO Region: 
EUR
Territory: 
Location: 
Sestri Ponente, Genoa, Liguria
Serving: 
Genoa
Elevation: 
13 ft
Coordinates: 
Aerial View: 
44° 24' 43.027" N, 8° 50' 46.802" E
Airport RE: 
Aquaplaning
Airport WX: 
Low Level Turbulence
Metar
Observation
LIMJ 170420Z VRB02KT CAVOK 07/03 Q1026
Station
Genova / Sestri
Date/Time
2022-01-17 04:20:00
Wind speed
02 kts
Lowest cloud amount
clouds and visibility OK
Temperature
7°C
Dew point
3°C
Humidity
75%
QNH
1026 hPa
Weather condition
n/a

International airport serving Italian port of Genova.

Climatology

Dry-summer subtropical ”Mediterranean" climate (Köppen climate classification Csa) - characterized by hot, dry summers and mild winters. During the summer, subtropical high pressure cells dominate, making rainfall unlikely except for the occasional thunderstorm. In the winter, periodic storms bring rain (snow at higher elevations).

Runways

Designator Length Width Surface Rops
11/29 2915 45 ASP Yes/Yes
Airport map: 
Aerial View: 

SKYbrary Partners:

Safety knowledge contributed by: